Terminal Aerodrome Forecast
Issued by NWS

Home | Current Version | Previous Version | Text Only | Print | Product List | Glossary On
Versions: 1 2 3 4 5 6 7 8 9 10 11 12 13 14 15 16 17 18 19 20 21 22 23 24 25 26 27 28
000
FTUS44 KHGX 200033 AAA
TAFLBX
TAF AMD
KLBX 200033Z 2001/2024 13017KT P6SM OVC008
     FM200500 13010KT 6SM BR OVC008
     FM201000 14007KT 6SM -SHRA BR BKN007 BKN013
     FM201200 VRB10KT 4SM TSRA BKN015CB OVC025
      TEMPO 2012/2016 VRB30KT 1SM +TSRA OVC006CB
     FM201600 09008KT 4SM SHRA VCTS BKN010CB
     FM202200 09006KT 6SM -RA SCT020 BKN035 BKN120=

USA.gov is the U.S. government's official web portal to all federal, state and local government web resources and services.